FNKU

Kuito Airport

Kuito, Angola
METAR FNKU 141300Z 16010KT CAVOK 27/17 Q1022
Observed Flight Rules
Aug-14 @ 13:00 UTC (43 minutes ago) Visual Flight Rules
Wind Visibility Clouds
160° at 10 knots 10,000+ meters
  • Clear skies
Temperatures Readings
Current 27°C / 81°F
Dewpoint 17°C / 63°F
Humidity 54%
Altimeter 30.18" Hg
Pressure 1022 hPa
Elevation 1699
METAR FNKU 141300Z 16010KT CAVOK 27/17 Q1022
Observed Flight Rules
Aug-14 @ 13:00 UTC
(43 minutes ago)
VFR
Wind Visibility
160° at 10 knots 10,000+ meters
Clouds
  • Clear skies
Temperature Dewpoint
27°C / 81°F 17°C / 63°F
Humidity Altimeter Pressure
54% 30.18" Hg 1022 hPa